UNM, New Mexico
Current Conditions -  °F | °C
As of 7:52 PM on Monday 22 Dec 2014 (Local Time) from KABQ Reporting Station
Broken Clouds Broken Clouds  
Wind Chill: 41°   Ceiling: 10000
Heat Index: 45°   Visibility: 10mi
Dew Point: 31°   Wind: 8mph
Humidity: 58%   Direction: 360°N
Pressure: 29.77"   Gusts: NA
Location:  35.0525°N, 106.616°W
Report Text: KABQ 230252Z 36007KT 10SM FEW035 SCT070 BKN100 07/M01 A2977 RMK AO2 PK WND 31028/0211 SLP069 MTNS OBSC NE-SE T00721006 53013
Loading
Personal Weather Stations






























Interactive Weather Map New forecast layout! Learn more

10-Day Weather Forecast

Advertisements
Track Severe Weather on mobile